EGPE/INV METAR and TAF weather

Enter ICAO airport designator
Station Type Date Time Source
EGPE METAR 2019/07/20 04:50 UTC NOAA

EGPE 200450Z 36001KT 8000 -RA FEW006 BKN018 14/14 Q0999 RERA


Station Type Date Time Source
EGPE Decoded METAR 2019/07/20 04:50 UTC NOAA

Inverness / Dalcross, United Kingdom (EGPE) 57-32N 004-03W 0M
Jul 20, 2019 - 12:50 AM EDT / 2019.07.20 0450 UTC
Wind: from the N (360 degrees) at 1 MPH (1 KT):0
Visibility: 4 mile(s):0
Sky conditions: mostly cloudy
Weather: light rain
Temperature: 57 F (14 C)
Dew Point: 57 F (14 C)
Relative Humidity: 100%
Pressure (altimeter): 29.50 in. Hg (0999 hPa)
ob: EGPE 200450Z 36001KT 8000 -RA FEW006 BKN018 14/14 Q0999 RERA
cycle: 5

Station Type Date Time Source
EGPE TAF UTC NOAA

Error!

Example: see airport list